createdAt,value
2022-09-22T00:01:57.240Z,10.87
2022-09-22T00:06:00.939Z,9.57
2022-09-22T00:10:02.636Z,10.23
2022-09-22T00:14:13.057Z,7.30
2022-09-22T00:18:14.765Z,9.47
2022-09-22T00:22:16.459Z,9.30
2022-09-22T00:26:21.795Z,8.40
2022-09-22T00:30:24.239Z,8.07
2022-09-22T00:34:26.723Z,10.63
2022-09-22T00:38:29.192Z,10.07
2022-09-22T00:42:30.858Z,11.83
2022-09-22T00:46:32.608Z,8.40
2022-09-22T00:50:34.449Z,7.93
2022-09-22T00:54:36.193Z,9.83
2022-09-22T00:58:54.498Z,12.90
2022-09-22T01:02:58.086Z,13.20
2022-09-22T01:06:59.921Z,9.57
2022-09-22T01:11:01.637Z,12.93
2022-09-22T01:15:41.070Z,8.87
2022-09-22T01:20:04.648Z,10.47
2022-09-22T01:24:24.322Z,9.17
2022-09-22T01:28:56.110Z,10.97
2022-09-22T01:33:12.382Z,10.50
2022-09-22T01:37:29.845Z,7.83
2022-09-22T01:42:07.165Z,9.57
2022-09-22T01:46:34.283Z,8.10
2022-09-22T01:50:46.807Z,8.10
2022-09-22T01:55:23.799Z,7.97
2022-09-22T01:59:28.452Z,7.93
2022-09-22T02:03:40.952Z,8.57
2022-09-22T02:07:47.579Z,8.20
2022-09-22T02:11:56.914Z,7.47
2022-09-22T02:16:07.752Z,7.33
2022-09-22T02:20:16.700Z,8.17
2022-09-22T02:24:32.400Z,8.60
2022-09-22T02:28:37.837Z,7.23
2022-09-22T02:32:42.821Z,7.37
2022-09-22T02:37:04.125Z,9.57
2022-09-22T02:41:18.732Z,7.47
2022-09-22T02:45:26.706Z,8.67
2022-09-22T02:49:28.547Z,8.40
2022-09-22T02:53:30.692Z,7.37
2022-09-22T02:57:32.425Z,7.63
2022-09-22T03:01:34.202Z,8.40
2022-09-22T03:05:36.081Z,7.37
2022-09-22T03:09:37.969Z,10.33
2022-09-22T03:13:39.722Z,7.70
2022-09-22T03:17:41.801Z,7.20
2022-09-22T03:21:43.955Z,7.43
2022-09-22T03:25:45.727Z,6.67
2022-09-22T03:29:47.465Z,7.70
2022-09-22T03:33:52.556Z,6.80
2022-09-22T03:37:54.614Z,7.07
2022-09-22T03:41:56.327Z,7.20
2022-09-22T03:45:59.238Z,6.67
2022-09-22T03:50:01.151Z,6.47
2022-09-22T03:54:02.931Z,9.97
2022-09-22T03:58:04.791Z,7.63
2022-09-22T04:02:06.800Z,8.50
2022-09-22T04:06:08.710Z,10.73
2022-09-22T04:10:10.381Z,8.80
2022-09-22T04:14:12.408Z,10.23
2022-09-22T04:18:14.537Z,8.57
2022-09-22T04:22:16.415Z,9.07
2022-09-22T04:26:18.201Z,11.33
2022-09-22T04:30:19.866Z,10.20
2022-09-22T04:34:34.677Z,8.97
2022-09-22T04:38:36.770Z,9.23
2022-09-22T04:42:42.104Z,11.00
2022-09-22T04:46:47.025Z,9.60
2022-09-22T04:50:48.902Z,7.63
2022-09-22T04:54:50.985Z,8.97
2022-09-22T04:58:52.732Z,11.17
2022-09-22T05:02:54.898Z,8.60
2022-09-22T05:06:56.841Z,12.73
2022-09-22T05:11:00.136Z,11.10
2022-09-22T05:15:04.839Z,8.13
2022-09-22T05:19:06.643Z,9.87
2022-09-22T05:23:08.376Z,7.77
2022-09-22T05:27:10.093Z,11.30
2022-09-22T05:31:12.051Z,23.70
2022-09-22T05:35:15.768Z,13.17
2022-09-22T05:39:17.574Z,8.90
2022-09-22T05:43:19.326Z,8.80
2022-09-22T05:47:21.053Z,8.70
2022-09-22T05:51:22.817Z,9.87
2022-09-22T05:55:24.594Z,6.97
2022-09-22T05:59:26.316Z,10.23
2022-09-22T06:03:28.235Z,8.50
2022-09-22T06:07:30.072Z,7.50
2022-09-22T06:11:31.864Z,7.53
2022-09-22T06:15:36.694Z,8.87
2022-09-22T06:19:39.262Z,10.70
2022-09-22T06:23:43.009Z,16.50
2022-09-22T06:27:45.071Z,8.10
2022-09-22T06:31:48.879Z,10.20
2022-09-22T06:35:50.741Z,13.73
2022-09-22T06:39:52.596Z,10.77
2022-09-22T06:43:57.385Z,8.23
2022-09-22T06:47:59.529Z,10.87
2022-09-22T06:52:01.643Z,9.63
2022-09-22T06:56:05.961Z,9.80
2022-09-22T07:00:08.827Z,7.37
2022-09-22T07:04:11.772Z,7.93
2022-09-22T07:08:14.841Z,7.87
2022-09-22T07:12:21.460Z,8.43
2022-09-22T07:16:24.985Z,8.67
2022-09-22T07:20:26.822Z,8.20
2022-09-22T07:24:28.607Z,9.33
2022-09-22T07:28:33.020Z,8.53
2022-09-22T07:32:35.202Z,7.50
2022-09-22T07:36:37.208Z,9.27
2022-09-22T07:40:39.090Z,8.37
2022-09-22T07:44:59.258Z,9.70
2022-09-22T07:49:01.147Z,13.27
2022-09-22T07:53:04.208Z,10.67
2022-09-22T07:57:06.680Z,9.73
2022-09-22T08:01:12.261Z,8.67
2022-09-22T08:05:16.462Z,8.57
2022-09-22T08:09:18.691Z,11.73
2022-09-22T08:13:21.924Z,10.13
2022-09-22T08:17:29.769Z,10.83
2022-09-22T08:21:47.706Z,10.63
2022-09-22T08:25:50.791Z,11.13
2022-09-22T08:29:53.135Z,10.20
2022-09-22T08:33:55.612Z,9.67
2022-09-22T08:37:57.446Z,10.37
2022-09-22T08:42:09.448Z,9.83
2022-09-22T08:46:11.311Z,6.40
2022-09-22T08:51:03.359Z,7.80
2022-09-22T08:55:07.577Z,6.57
2022-09-22T08:59:23.912Z,6.80
2022-09-22T09:03:54.883Z,6.20
2022-09-22T09:08:30.354Z,7.13
2022-09-22T09:12:53.476Z,6.37
2022-09-22T09:17:15.125Z,17.37
2022-09-22T09:21:17.048Z,7.50
2022-09-22T09:25:38.601Z,6.63
2022-09-22T09:29:51.536Z,6.13
2022-09-22T09:34:08.845Z,6.33
2022-09-22T09:38:16.171Z,7.07
2022-09-22T09:42:31.687Z,5.67
2022-09-22T09:47:02.161Z,6.60
2022-09-22T09:51:05.264Z,7.57
2022-09-22T09:55:27.250Z,6.67
2022-09-22T09:59:48.169Z,6.03
2022-09-22T10:03:54.880Z,6.27
2022-09-22T10:08:13.959Z,6.73
2022-09-22T10:12:28.500Z,5.30
2022-09-22T10:16:31.687Z,5.50
2022-09-22T10:20:36.407Z,8.13
2022-09-22T10:24:38.174Z,5.77
2022-09-22T10:28:39.950Z,4.53
2022-09-22T10:32:42.509Z,4.60
2022-09-22T10:36:44.709Z,3.63
2022-09-22T10:40:58.343Z,5.03
2022-09-22T10:45:09.959Z,3.90
2022-09-22T10:49:54.662Z,2.47
2022-09-22T10:54:30.060Z,2.83
2022-09-22T10:58:59.453Z,2.83
2022-09-22T11:03:50.207Z,2.90
2022-09-22T11:08:16.544Z,3.37
2022-09-22T11:12:59.801Z,2.17
2022-09-22T11:17:39.123Z,2.30
2022-09-22T11:22:40.720Z,1.53
2022-09-22T11:26:52.359Z,2.37
2022-09-22T11:30:54.780Z,1.43
2022-09-22T11:35:39.849Z,1.37
2022-09-22T11:39:53.570Z,2.30
2022-09-22T11:44:20.212Z,1.67
2022-09-22T11:49:02.584Z,0.93
2022-09-22T11:53:49.572Z,1.53
2022-09-22T11:57:56.984Z,1.87
2022-09-22T12:02:04.058Z,1.63
2022-09-22T12:06:16.202Z,1.30
2022-09-22T12:10:28.593Z,1.20
2022-09-22T12:14:30.584Z,1.27
2022-09-22T12:19:05.707Z,1.00
2022-09-22T12:23:10.531Z,1.10
2022-09-22T12:27:27.419Z,1.20
2022-09-22T12:31:42.076Z,2.23
2022-09-22T12:35:53.336Z,1.57
2022-09-22T12:40:30.718Z,1.17
2022-09-22T12:44:37.442Z,0.90
2022-09-22T12:48:39.318Z,1.80
2022-09-22T12:52:41.045Z,1.10
2022-09-22T12:56:46.457Z,0.87
2022-09-22T13:00:52.856Z,1.27
2022-09-22T13:04:55.109Z,1.03
2022-09-22T13:09:01.069Z,1.07
2022-09-22T13:13:05.922Z,0.60
2022-09-22T13:17:41.399Z,0.53
2022-09-22T13:21:43.274Z,1.07
2022-09-22T13:25:45.010Z,0.70
2022-09-22T13:29:59.219Z,1.23
2022-09-22T13:34:16.764Z,2.53
2022-09-22T13:38:18.870Z,0.67
2022-09-22T13:42:31.356Z,1.07
2022-09-22T13:46:39.443Z,1.23
2022-09-22T13:51:02.186Z,0.80
2022-09-22T13:55:12.951Z,1.10
2022-09-22T13:59:14.728Z,1.30
2022-09-22T14:03:23.546Z,0.60
2022-09-22T14:07:30.760Z,1.60
2022-09-22T14:11:32.616Z,0.60
2022-09-22T14:15:37.454Z,1.00
2022-09-22T14:20:06.206Z,0.50
2022-09-22T14:24:08.021Z,0.70
2022-09-22T14:28:22.357Z,1.70
2022-09-22T14:32:35.025Z,1.37
2022-09-22T14:36:39.412Z,1.23
2022-09-22T14:40:54.479Z,1.10
2022-09-22T14:45:08.643Z,1.07
2022-09-22T14:49:36.426Z,1.57
2022-09-22T14:54:03.885Z,2.70
2022-09-22T14:58:17.014Z,1.10
2022-09-22T15:02:33.771Z,1.23
2022-09-22T15:06:39.708Z,1.00
2022-09-22T15:10:41.490Z,2.23
2022-09-22T15:14:44.295Z,1.33
2022-09-22T15:18:46.990Z,1.00
2022-09-22T15:22:49.039Z,1.90
2022-09-22T15:26:50.752Z,1.00
2022-09-22T15:30:52.774Z,1.37
2022-09-22T15:34:55.124Z,1.60
2022-09-22T15:39:19.693Z,2.00
2022-09-22T15:43:23.237Z,1.83
2022-09-22T15:47:25.845Z,1.73
2022-09-22T15:51:27.571Z,1.10
2022-09-22T15:55:29.326Z,2.63
2022-09-22T15:59:32.466Z,1.27
2022-09-22T16:03:40.228Z,1.00
2022-09-22T16:07:48.486Z,0.93
2022-09-22T16:11:50.566Z,0.80
2022-09-22T16:15:52.540Z,1.47
2022-09-22T16:19:54.285Z,1.87
2022-09-22T16:24:01.667Z,2.23
2022-09-22T16:28:07.518Z,2.43
2022-09-22T16:32:11.525Z,3.17
2022-09-22T16:36:13.546Z,1.93
2022-09-22T16:40:15.575Z,1.67
2022-09-22T16:44:24.113Z,1.40
2022-09-22T16:48:35.479Z,1.93
2022-09-22T16:52:39.987Z,1.90
2022-09-22T16:56:44.265Z,2.10
2022-09-22T17:00:46.087Z,1.13
2022-09-22T17:04:50.923Z,3.83
2022-09-22T17:08:58.692Z,3.30
2022-09-22T17:13:06.524Z,1.60
2022-09-22T17:17:11.827Z,3.00
2022-09-22T17:21:14.134Z,3.60
2022-09-22T17:25:17.350Z,2.67
2022-09-22T17:29:31.443Z,3.23
2022-09-22T17:33:36.354Z,4.23
2022-09-22T17:37:39.202Z,4.47
2022-09-22T17:41:47.171Z,9.53
2022-09-22T17:45:52.595Z,9.30
2022-09-22T17:50:12.778Z,8.10
2022-09-22T17:54:41.950Z,6.37
2022-09-22T17:58:43.673Z,6.33
2022-09-22T18:02:45.524Z,5.23
2022-09-22T18:06:48.602Z,9.10
2022-09-22T18:10:54.473Z,7.30
2022-09-22T18:14:56.322Z,7.73
2022-09-22T18:18:58.156Z,8.67
2022-09-22T18:23:01.511Z,6.80
2022-09-22T18:27:04.302Z,8.57
2022-09-22T18:31:06.175Z,8.33
2022-09-22T18:35:10.265Z,8.90
2022-09-22T18:39:12.319Z,8.50
2022-09-22T18:43:14.239Z,7.20
2022-09-22T18:47:18.562Z,8.00
2022-09-22T18:51:20.510Z,6.57
2022-09-22T18:55:22.373Z,6.43
2022-09-22T18:59:26.402Z,5.93
2022-09-22T19:03:28.375Z,6.03
2022-09-22T19:07:42.529Z,6.20
2022-09-22T19:11:46.975Z,5.10
2022-09-22T19:15:54.079Z,5.73
2022-09-22T19:19:58.283Z,4.23
2022-09-22T19:24:01.105Z,6.20
2022-09-22T19:28:06.688Z,6.67
2022-09-22T19:32:08.932Z,5.90
2022-09-22T19:36:13.480Z,5.73
2022-09-22T19:40:18.983Z,7.67
2022-09-22T19:44:21.913Z,7.90
2022-09-22T19:48:26.092Z,7.97
2022-09-22T19:52:29.122Z,8.07
2022-09-22T19:56:30.931Z,8.63
2022-09-22T20:00:41.814Z,7.13
2022-09-22T20:04:43.640Z,8.77
2022-09-22T20:08:48.338Z,9.60
2022-09-22T20:12:51.401Z,8.40
2022-09-22T20:16:54.045Z,13.77
2022-09-22T20:20:56.448Z,10.57
2022-09-22T20:25:01.813Z,10.47
2022-09-22T20:29:06.560Z,8.13
2022-09-22T20:33:23.313Z,7.97
2022-09-22T20:37:28.141Z,7.97
2022-09-22T20:41:33.548Z,7.53
2022-09-22T20:45:35.668Z,11.63
2022-09-22T20:49:37.591Z,6.70
2022-09-22T20:53:40.209Z,7.33
2022-09-22T20:57:42.763Z,9.20
2022-09-22T21:01:50.876Z,8.00
2022-09-22T21:05:52.794Z,8.20
2022-09-22T21:10:12.973Z,10.60
2022-09-22T21:14:15.473Z,10.60
2022-09-22T21:18:17.814Z,7.90
2022-09-22T21:22:19.626Z,8.90
2022-09-22T21:26:23.804Z,10.10
2022-09-22T21:30:37.371Z,7.73
2022-09-22T21:34:40.396Z,8.57
2022-09-22T21:38:46.516Z,10.83
2022-09-22T21:42:51.880Z,7.57
2022-09-22T21:46:54.259Z,8.33
2022-09-22T21:51:02.158Z,7.87
2022-09-22T21:55:04.581Z,8.40
2022-09-22T21:59:06.355Z,9.57
2022-09-22T22:03:26.349Z,9.53
2022-09-22T22:07:28.001Z,7.67
2022-09-22T22:11:57.140Z,8.30
2022-09-22T22:15:59.803Z,7.50
2022-09-22T22:20:01.985Z,7.03
2022-09-22T22:24:23.176Z,8.03
2022-09-22T22:28:25.267Z,7.67
2022-09-22T22:32:27.061Z,7.90
2022-09-22T22:36:28.790Z,7.10
2022-09-22T22:40:32.204Z,6.17
2022-09-22T22:44:35.129Z,7.33
2022-09-22T22:48:37.282Z,7.20
2022-09-22T22:52:41.335Z,5.83
2022-09-22T22:56:45.063Z,6.77
2022-09-22T23:00:49.741Z,5.93
2022-09-22T23:04:52.170Z,6.40
2022-09-22T23:08:54.199Z,7.10
2022-09-22T23:12:56.679Z,5.77
2022-09-22T23:16:58.465Z,7.90
2022-09-22T23:21:00.445Z,7.83
2022-09-22T23:25:02.601Z,6.60
2022-09-22T23:29:04.996Z,5.40
2022-09-22T23:33:07.092Z,6.40
2022-09-22T23:37:09.065Z,6.23
2022-09-22T23:41:46.461Z,6.50
2022-09-22T23:46:14.619Z,5.93
2022-09-22T23:51:24.541Z,6.00
2022-09-22T23:55:26.335Z,5.80
2022-09-22T23:59:31.054Z,6.10
